KFTK/FTK METAR and TAF weather

Enter ICAO airport designator
Station Type Date Time Source
KFTK METAR 2020/09/20 09:56 UTC NOAA

KFTK 200956Z AUTO 03006KT 10SM CLR 09/07 A3031 RMK AO2 SLP266 T00890065


Station Type Date Time Source
KFTK Decoded METAR 2020/09/20 09:56 UTC NOAA

Fort Knox, KY, United States (KFTK) 37-54N 085-58W 230M
Sep 20, 2020 - 05:56 AM EDT / 2020.09.20 0956 UTC
Wind: from the NNE (030 degrees) at 7 MPH (6 KT):0
Visibility: 10 mile(s):0
Sky conditions: clear
Temperature: 48.0 F (8.9 C)
Dew Point: 43.7 F (6.5 C)
Relative Humidity: 84%
Pressure (altimeter): 30.31 in. Hg (1026 hPa)
ob: KFTK 200956Z AUTO 03006KT 10SM CLR 09/07 A3031 RMK AO2 SLP266 T00890065
cycle: 10

Station Type Date Time Source
KFTK TAF 2020/09/18 19:06 UTC NOAA

TAF KFTK 181900Z 1819/2001 35012G18KT 9999 SKC QNH3017INS
BECMG 1822/1823 03009KT 9999 SKC QNH3016INS TX22/1820Z TN08/1912Z LAST NO
AMDS AFT 1903 NEXT 2111

Example: see airport list